Weather at Al Marfa Power and Desalinization Plant Heliport

Public forecast

Using degrees Celsius for public forecast. Weather courtesy of forecast.io.

Closest aviation weather report (METAR) to Al Marfa Power and Desalinization Plant Heliport

Closest report is Al Bateen Executive Airport, 58.8 nm (108.9 km) ENE.

2024/06/13 11:00 (retrieved 25 minutes ago)

OMAD 131100Z 34009KT 310V030 CAVOK 40/21 Q1000 NOSIG

Closest aviation forecast (TAF) to Al Marfa Power and Desalinization Plant Heliport

Closest forecast is Al Bateen Executive Airport, 58.8 nm (108.9 km) ENE.

2024/06/13 06:00 (retrieved 5 hours ago)

TAF OMAD 130500Z 1306/1412 23008KT 8000 NSC BECMG 1306/1308 30014KT BECMG 1317/1319 23005KT BECMG 1405/1407 32012KT